Аэропорт: Мурманск. Мурманск

ICAO: ULMM

METAR:
2021-07-28 13:00:00
ULMM 281300Z 03003MPS 9999 BKN015CB 10/08 Q1012 R31/190065 NOSIG RMK QFE752
METAR:
2021-07-28 10:50:00
TAF ULMM 281050Z 2812/2912 02003G08MPS 6000 BKN016 TEMPO 2812/2821 05003G08MPS -SHRA BKN016CB TEMPO 2821/2909 05003G08MPS -SHRA BKN006 BKN016CB